sensor_id;sensor_type;location;lat;lon;timestamp;P1;durP1;ratioP1;P2;durP2;ratioP2
23634;SDS011;11994;51.038;16.974;2023-01-24T00:00:28;56.50;;;35.20;;
23634;SDS011;11994;51.038;16.974;2023-01-24T00:02:53;57.80;;;35.00;;
23634;SDS011;11994;51.038;16.974;2023-01-24T00:05:19;61.10;;;37.30;;
23634;SDS011;11994;51.038;16.974;2023-01-24T00:07:45;61.00;;;37.20;;
23634;SDS011;11994;51.038;16.974;2023-01-24T00:10:10;58.10;;;36.20;;
23634;SDS011;11994;51.038;16.974;2023-01-24T00:12:36;62.50;;;37.20;;
23634;SDS011;11994;51.038;16.974;2023-01-24T00:15:01;61.60;;;36.30;;
23634;SDS011;11994;51.038;16.974;2023-01-24T00:17:26;61.00;;;35.70;;
23634;SDS011;11994;51.038;16.974;2023-01-24T00:19:52;61.50;;;35.40;;
23634;SDS011;11994;51.038;16.974;2023-01-24T00:22:17;64.60;;;37.20;;
23634;SDS011;11994;51.038;16.974;2023-01-24T00:24:42;59.50;;;36.90;;
23634;SDS011;11994;51.038;16.974;2023-01-24T00:27:08;60.90;;;37.60;;
23634;SDS011;11994;51.038;16.974;2023-01-24T00:29:33;64.90;;;37.90;;
23634;SDS011;11994;51.038;16.974;2023-01-24T00:31:59;63.60;;;36.30;;
23634;SDS011;11994;51.038;16.974;2023-01-24T00:34:24;59.70;;;35.10;;
23634;SDS011;11994;51.038;16.974;2023-01-24T00:36:49;62.80;;;36.70;;
23634;SDS011;11994;51.038;16.974;2023-01-24T00:39:15;61.80;;;37.00;;
23634;SDS011;11994;51.038;16.974;2023-01-24T00:41:40;62.40;;;37.60;;
23634;SDS011;11994;51.038;16.974;2023-01-24T00:44:05;67.10;;;40.00;;
23634;SDS011;11994;51.038;16.974;2023-01-24T00:46:31;68.10;;;38.60;;
23634;SDS011;11994;51.038;16.974;2023-01-24T00:48:56;63.40;;;38.80;;
23634;SDS011;11994;51.038;16.974;2023-01-24T00:51:21;64.00;;;37.80;;
23634;SDS011;11994;51.038;16.974;2023-01-24T00:53:47;64.50;;;37.10;;
23634;SDS011;11994;51.038;16.974;2023-01-24T00:56:12;58.60;;;37.50;;
23634;SDS011;11994;51.038;16.974;2023-01-24T00:58:37;66.00;;;39.50;;
23634;SDS011;11994;51.038;16.974;2023-01-24T01:01:03;63.40;;;39.50;;
23634;SDS011;11994;51.038;16.974;2023-01-24T01:03:28;65.40;;;39.50;;
23634;SDS011;11994;51.038;16.974;2023-01-24T01:06:04;63.40;;;38.20;;
23634;SDS011;11994;51.038;16.974;2023-01-24T01:08:31;64.60;;;38.10;;
23634;SDS011;11994;51.038;16.974;2023-01-24T01:10:57;58.20;;;36.50;;
23634;SDS011;11994;51.038;16.974;2023-01-24T01:13:23;64.20;;;38.90;;
23634;SDS011;11994;51.038;16.974;2023-01-24T01:15:49;64.70;;;38.60;;
23634;SDS011;11994;51.038;16.974;2023-01-24T01:18:15;64.50;;;38.90;;
23634;SDS011;11994;51.038;16.974;2023-01-24T01:20:41;66.50;;;40.20;;
23634;SDS011;11994;51.038;16.974;2023-01-24T01:23:06;67.00;;;38.80;;
23634;SDS011;11994;51.038;16.974;2023-01-24T01:25:32;60.00;;;36.20;;
23634;SDS011;11994;51.038;16.974;2023-01-24T01:27:57;61.40;;;37.70;;
23634;SDS011;11994;51.038;16.974;2023-01-24T01:30:23;63.40;;;38.80;;
23634;SDS011;11994;51.038;16.974;2023-01-24T01:32:48;65.40;;;39.30;;
23634;SDS011;11994;51.038;16.974;2023-01-24T01:35:14;64.20;;;40.20;;
23634;SDS011;11994;51.038;16.974;2023-01-24T01:37:39;64.50;;;39.30;;
23634;SDS011;11994;51.038;16.974;2023-01-24T01:40:05;65.50;;;38.70;;
23634;SDS011;11994;51.038;16.974;2023-01-24T01:48:24;63.30;;;38.70;;
23634;SDS011;11994;51.038;16.974;2023-01-24T01:53:37;62.90;;;39.60;;
23634;SDS011;11994;51.038;16.974;2023-01-24T01:56:19;64.10;;;40.00;;
23634;SDS011;11994;51.038;16.974;2023-01-24T01:58:51;59.30;;;40.40;;
23634;SDS011;11994;51.038;16.974;2023-01-24T02:01:20;62.80;;;38.80;;
23634;SDS011;11994;51.038;16.974;2023-01-24T02:03:49;61.20;;;37.80;;
23634;SDS011;11994;51.038;16.974;2023-01-24T02:09:22;64.00;;;39.80;;
23634;SDS011;11994;51.038;16.974;2023-01-24T02:11:51;64.10;;;39.50;;
23634;SDS011;11994;51.038;16.974;2023-01-24T02:14:19;63.30;;;39.50;;
23634;SDS011;11994;51.038;16.974;2023-01-24T02:17:06;63.90;;;40.90;;
23634;SDS011;11994;51.038;16.974;2023-01-24T02:22:14;65.10;;;39.60;;
23634;SDS011;11994;51.038;16.974;2023-01-24T02:24:48;59.10;;;37.10;;
23634;SDS011;11994;51.038;16.974;2023-01-24T02:27:24;63.10;;;37.60;;
23634;SDS011;11994;51.038;16.974;2023-01-24T02:29:52;65.10;;;39.70;;
23634;SDS011;11994;51.038;16.974;2023-01-24T02:32:18;60.40;;;39.00;;
23634;SDS011;11994;51.038;16.974;2023-01-24T02:34:45;66.50;;;41.60;;
23634;SDS011;11994;51.038;16.974;2023-01-24T02:37:12;63.30;;;39.90;;
23634;SDS011;11994;51.038;16.974;2023-01-24T02:42:10;61.60;;;37.90;;
23634;SDS011;11994;51.038;16.974;2023-01-24T02:47:30;61.50;;;39.40;;
23634;SDS011;11994;51.038;16.974;2023-01-24T02:49:59;60.00;;;39.50;;
23634;SDS011;11994;51.038;16.974;2023-01-24T02:52:25;64.50;;;39.60;;
23634;SDS011;11994;51.038;16.974;2023-01-24T02:55:09;64.50;;;39.30;;
23634;SDS011;11994;51.038;16.974;2023-01-24T02:57:34;59.60;;;37.40;;
23634;SDS011;11994;51.038;16.974;2023-01-24T03:00:18;57.80;;;37.10;;
23634;SDS011;11994;51.038;16.974;2023-01-24T03:02:44;60.70;;;38.20;;
23634;SDS011;11994;51.038;16.974;2023-01-24T03:05:09;63.40;;;39.30;;
23634;SDS011;11994;51.038;16.974;2023-01-24T03:07:35;62.70;;;39.20;;
23634;SDS011;11994;51.038;16.974;2023-01-24T03:10:11;63.10;;;40.20;;
23634;SDS011;11994;51.038;16.974;2023-01-24T03:12:38;66.20;;;40.50;;
23634;SDS011;11994;51.038;16.974;2023-01-24T03:15:22;63.70;;;38.70;;
23634;SDS011;11994;51.038;16.974;2023-01-24T03:18:07;58.30;;;38.00;;
23634;SDS011;11994;51.038;16.974;2023-01-24T03:20:51;60.00;;;37.60;;
23634;SDS011;11994;51.038;16.974;2023-01-24T03:23:35;56.50;;;36.40;;
23634;SDS011;11994;51.038;16.974;2023-01-24T03:26:19;59.60;;;38.10;;
23634;SDS011;11994;51.038;16.974;2023-01-24T03:29:03;59.80;;;39.10;;
23634;SDS011;11994;51.038;16.974;2023-01-24T03:31:47;62.10;;;37.70;;
23634;SDS011;11994;51.038;16.974;2023-01-24T03:34:31;64.50;;;40.80;;
23634;SDS011;11994;51.038;16.974;2023-01-24T03:36:57;63.30;;;37.40;;
23634;SDS011;11994;51.038;16.974;2023-01-24T03:39:26;59.50;;;37.50;;
23634;SDS011;11994;51.038;16.974;2023-01-24T03:42:10;55.40;;;35.30;;
23634;SDS011;11994;51.038;16.974;2023-01-24T03:44:35;58.20;;;37.10;;
23634;SDS011;11994;51.038;16.974;2023-01-24T03:47:01;58.10;;;37.30;;
23634;SDS011;11994;51.038;16.974;2023-01-24T03:49:26;59.10;;;38.40;;
23634;SDS011;11994;51.038;16.974;2023-01-24T03:52:10;62.60;;;38.50;;
23634;SDS011;11994;51.038;16.974;2023-01-24T03:54:57;62.10;;;37.00;;
23634;SDS011;11994;51.038;16.974;2023-01-24T03:57:24;61.60;;;38.60;;
23634;SDS011;11994;51.038;16.974;2023-01-24T03:59:51;55.60;;;37.50;;
23634;SDS011;11994;51.038;16.974;2023-01-24T04:02:16;58.00;;;37.20;;
23634;SDS011;11994;51.038;16.974;2023-01-24T04:04:42;59.70;;;37.80;;
23634;SDS011;11994;51.038;16.974;2023-01-24T04:07:27;64.00;;;39.50;;
23634;SDS011;11994;51.038;16.974;2023-01-24T04:09:52;63.00;;;39.80;;
23634;SDS011;11994;51.038;16.974;2023-01-24T04:12:18;63.60;;;38.10;;
23634;SDS011;11994;51.038;16.974;2023-01-24T04:14:43;58.10;;;37.30;;
23634;SDS011;11994;51.038;16.974;2023-01-24T04:17:09;56.40;;;36.40;;
23634;SDS011;11994;51.038;16.974;2023-01-24T04:19:34;56.60;;;36.80;;
23634;SDS011;11994;51.038;16.974;2023-01-24T04:22:00;59.00;;;38.70;;
23634;SDS011;11994;51.038;16.974;2023-01-24T04:24:25;60.60;;;40.30;;
23634;SDS011;11994;51.038;16.974;2023-01-24T04:26:50;62.00;;;42.00;;
23634;SDS011;11994;51.038;16.974;2023-01-24T04:29:16;56.50;;;37.90;;
23634;SDS011;11994;51.038;16.974;2023-01-24T04:31:41;58.80;;;37.20;;
23634;SDS011;11994;51.038;16.974;2023-01-24T04:34:07;55.40;;;35.80;;
23634;SDS011;11994;51.038;16.974;2023-01-24T04:36:32;56.50;;;37.30;;
23634;SDS011;11994;51.038;16.974;2023-01-24T04:38:58;64.60;;;39.80;;
23634;SDS011;11994;51.038;16.974;2023-01-24T04:41:23;65.70;;;39.50;;
23634;SDS011;11994;51.038;16.974;2023-01-24T04:43:49;61.70;;;38.90;;
23634;SDS011;11994;51.038;16.974;2023-01-24T04:46:14;62.70;;;40.20;;
23634;SDS011;11994;51.038;16.974;2023-01-24T04:48:40;64.50;;;40.60;;
23634;SDS011;11994;51.038;16.974;2023-01-24T04:51:05;60.10;;;37.30;;
23634;SDS011;11994;51.038;16.974;2023-01-24T04:53:30;60.50;;;38.80;;
23634;SDS011;11994;51.038;16.974;2023-01-24T04:55:59;65.60;;;39.10;;
23634;SDS011;11994;51.038;16.974;2023-01-24T04:58:26;64.80;;;38.70;;
23634;SDS011;11994;51.038;16.974;2023-01-24T05:00:52;61.50;;;39.60;;
23634;SDS011;11994;51.038;16.974;2023-01-24T05:03:18;67.60;;;41.40;;
23634;SDS011;11994;51.038;16.974;2023-01-24T05:05:43;62.50;;;39.70;;
23634;SDS011;11994;51.038;16.974;2023-01-24T05:08:08;59.90;;;37.50;;
23634;SDS011;11994;51.038;16.974;2023-01-24T05:10:34;59.80;;;38.80;;
23634;SDS011;11994;51.038;16.974;2023-01-24T05:12:59;65.40;;;40.50;;
23634;SDS011;11994;51.038;16.974;2023-01-24T05:15:24;64.30;;;39.70;;
23634;SDS011;11994;51.038;16.974;2023-01-24T05:17:51;65.70;;;40.70;;
23634;SDS011;11994;51.038;16.974;2023-01-24T05:20:16;66.90;;;41.70;;
23634;SDS011;11994;51.038;16.974;2023-01-24T05:22:42;61.10;;;38.70;;
23634;SDS011;11994;51.038;16.974;2023-01-24T05:25:11;62.70;;;39.10;;
23634;SDS011;11994;51.038;16.974;2023-01-24T05:27:39;59.30;;;38.00;;
23634;SDS011;11994;51.038;16.974;2023-01-24T05:30:05;63.50;;;39.50;;
23634;SDS011;11994;51.038;16.974;2023-01-24T05:32:31;58.10;;;38.30;;
23634;SDS011;11994;51.038;16.974;2023-01-24T05:34:56;63.90;;;40.30;;
23634;SDS011;11994;51.038;16.974;2023-01-24T05:37:22;65.50;;;41.40;;
23634;SDS011;11994;51.038;16.974;2023-01-24T05:39:47;60.70;;;38.50;;
23634;SDS011;11994;51.038;16.974;2023-01-24T05:42:12;56.50;;;37.20;;
23634;SDS011;11994;51.038;16.974;2023-01-24T05:44:38;57.80;;;37.30;;
23634;SDS011;11994;51.038;16.974;2023-01-24T05:47:03;57.20;;;37.40;;
23634;SDS011;11994;51.038;16.974;2023-01-24T05:49:28;62.80;;;39.50;;
23634;SDS011;11994;51.038;16.974;2023-01-24T05:51:54;63.90;;;39.70;;
23634;SDS011;11994;51.038;16.974;2023-01-24T05:54:19;61.80;;;39.50;;
23634;SDS011;11994;51.038;16.974;2023-01-24T05:56:44;60.40;;;39.90;;
23634;SDS011;11994;51.038;16.974;2023-01-24T05:59:10;59.20;;;37.80;;
23634;SDS011;11994;51.038;16.974;2023-01-24T06:01:35;57.30;;;36.40;;
23634;SDS011;11994;51.038;16.974;2023-01-24T06:04:01;61.80;;;38.30;;
23634;SDS011;11994;51.038;16.974;2023-01-24T06:06:26;61.30;;;38.40;;
23634;SDS011;11994;51.038;16.974;2023-01-24T06:08:52;58.30;;;38.60;;
23634;SDS011;11994;51.038;16.974;2023-01-24T06:11:19;62.00;;;39.80;;
23634;SDS011;11994;51.038;16.974;2023-01-24T06:13:46;60.60;;;39.30;;
23634;SDS011;11994;51.038;16.974;2023-01-24T06:16:13;60.00;;;37.70;;
23634;SDS011;11994;51.038;16.974;2023-01-24T06:18:43;56.90;;;36.90;;
23634;SDS011;11994;51.038;16.974;2023-01-24T06:21:16;57.10;;;36.60;;
23634;SDS011;11994;51.038;16.974;2023-01-24T06:23:55;55.10;;;36.90;;
23634;SDS011;11994;51.038;16.974;2023-01-24T06:26:20;60.80;;;38.20;;
23634;SDS011;11994;51.038;16.974;2023-01-24T06:28:46;58.50;;;38.00;;
23634;SDS011;11994;51.038;16.974;2023-01-24T06:36:32;58.40;;;34.30;;
23634;SDS011;11994;51.038;16.974;2023-01-24T06:39:10;58.40;;;36.00;;
23634;SDS011;11994;51.038;16.974;2023-01-24T06:41:39;58.00;;;35.80;;
23634;SDS011;11994;51.038;16.974;2023-01-24T06:44:05;61.10;;;38.90;;
23634;SDS011;11994;51.038;16.974;2023-01-24T06:46:32;57.90;;;37.60;;
23634;SDS011;11994;51.038;16.974;2023-01-24T06:48:57;57.70;;;37.00;;
23634;SDS011;11994;51.038;16.974;2023-01-24T06:51:23;58.30;;;37.70;;
23634;SDS011;11994;51.038;16.974;2023-01-24T06:53:48;58.40;;;36.20;;
23634;SDS011;11994;51.038;16.974;2023-01-24T06:56:13;57.50;;;36.60;;
23634;SDS011;11994;51.038;16.974;2023-01-24T06:58:39;61.50;;;37.50;;
23634;SDS011;11994;51.038;16.974;2023-01-24T07:01:04;60.40;;;36.70;;
23634;SDS011;11994;51.038;16.974;2023-01-24T07:03:29;61.50;;;38.60;;
23634;SDS011;11994;51.038;16.974;2023-01-24T07:05:55;61.90;;;39.30;;
23634;SDS011;11994;51.038;16.974;2023-01-24T07:08:20;56.80;;;37.90;;
23634;SDS011;11994;51.038;16.974;2023-01-24T07:10:46;57.40;;;36.30;;
23634;SDS011;11994;51.038;16.974;2023-01-24T07:13:12;55.00;;;35.20;;
23634;SDS011;11994;51.038;16.974;2023-01-24T07:15:37;54.90;;;35.70;;
23634;SDS011;11994;51.038;16.974;2023-01-24T07:18:06;58.40;;;36.90;;
23634;SDS011;11994;51.038;16.974;2023-01-24T07:20:36;58.40;;;36.70;;
23634;SDS011;11994;51.038;16.974;2023-01-24T07:23:02;58.90;;;37.40;;
23634;SDS011;11994;51.038;16.974;2023-01-24T07:25:27;61.70;;;37.60;;
23634;SDS011;11994;51.038;16.974;2023-01-24T07:27:54;56.50;;;37.30;;
23634;SDS011;11994;51.038;16.974;2023-01-24T07:30:19;58.70;;;36.40;;
23634;SDS011;11994;51.038;16.974;2023-01-24T07:32:45;52.60;;;34.30;;
23634;SDS011;11994;51.038;16.974;2023-01-24T07:35:10;53.90;;;35.40;;
23634;SDS011;11994;51.038;16.974;2023-01-24T07:37:36;58.50;;;37.20;;
23634;SDS011;11994;51.038;16.974;2023-01-24T07:40:01;57.70;;;37.80;;
23634;SDS011;11994;51.038;16.974;2023-01-24T07:42:28;58.30;;;37.50;;
23634;SDS011;11994;51.038;16.974;2023-01-24T07:44:53;61.60;;;39.00;;
23634;SDS011;11994;51.038;16.974;2023-01-24T07:47:19;60.20;;;37.20;;
23634;SDS011;11994;51.038;16.974;2023-01-24T07:49:45;55.00;;;35.70;;
23634;SDS011;11994;51.038;16.974;2023-01-24T07:52:10;54.50;;;34.80;;
23634;SDS011;11994;51.038;16.974;2023-01-24T07:54:35;55.70;;;35.60;;
23634;SDS011;11994;51.038;16.974;2023-01-24T07:57:01;57.70;;;37.60;;
23634;SDS011;11994;51.038;16.974;2023-01-24T07:59:26;57.40;;;37.70;;
23634;SDS011;11994;51.038;16.974;2023-01-24T08:01:52;59.00;;;37.40;;
23634;SDS011;11994;51.038;16.974;2023-01-24T08:04:17;62.00;;;38.30;;
23634;SDS011;11994;51.038;16.974;2023-01-24T08:06:43;57.20;;;36.40;;
23634;SDS011;11994;51.038;16.974;2023-01-24T08:09:28;58.10;;;35.70;;
23634;SDS011;11994;51.038;16.974;2023-01-24T08:11:54;56.90;;;35.30;;
23634;SDS011;11994;51.038;16.974;2023-01-24T08:14:20;57.50;;;37.60;;
23634;SDS011;11994;51.038;16.974;2023-01-24T08:16:46;60.30;;;37.40;;
23634;SDS011;11994;51.038;16.974;2023-01-24T08:19:13;57.90;;;37.30;;
23634;SDS011;11994;51.038;16.974;2023-01-24T08:21:38;56.60;;;35.90;;
23634;SDS011;11994;51.038;16.974;2023-01-24T08:24:03;60.30;;;37.30;;
23634;SDS011;11994;51.038;16.974;2023-01-24T08:26:29;59.30;;;36.40;;
23634;SDS011;11994;51.038;16.974;2023-01-24T08:28:54;58.50;;;37.20;;
23634;SDS011;11994;51.038;16.974;2023-01-24T08:31:20;62.40;;;37.70;;
23634;SDS011;11994;51.038;16.974;2023-01-24T08:33:45;64.30;;;39.30;;
23634;SDS011;11994;51.038;16.974;2023-01-24T08:36:10;60.00;;;38.10;;
23634;SDS011;11994;51.038;16.974;2023-01-24T08:38:36;60.70;;;37.50;;
23634;SDS011;11994;51.038;16.974;2023-01-24T08:41:04;64.30;;;38.10;;
23634;SDS011;11994;51.038;16.974;2023-01-24T08:43:30;58.80;;;36.10;;
23634;SDS011;11994;51.038;16.974;2023-01-24T08:45:56;57.00;;;36.80;;
23634;SDS011;11994;51.038;16.974;2023-01-24T08:48:21;62.40;;;38.90;;
23634;SDS011;11994;51.038;16.974;2023-01-24T08:50:47;60.10;;;36.90;;
23634;SDS011;11994;51.038;16.974;2023-01-24T08:53:12;59.40;;;37.90;;
23634;SDS011;11994;51.038;16.974;2023-01-24T08:55:39;64.70;;;39.10;;
23634;SDS011;11994;51.038;16.974;2023-01-24T08:58:05;60.30;;;36.50;;
23634;SDS011;11994;51.038;16.974;2023-01-24T09:00:30;63.50;;;37.80;;
23634;SDS011;11994;51.038;16.974;2023-01-24T09:02:56;62.70;;;38.20;;
23634;SDS011;11994;51.038;16.974;2023-01-24T09:05:25;66.70;;;39.80;;
23634;SDS011;11994;51.038;16.974;2023-01-24T09:07:51;57.20;;;37.20;;
23634;SDS011;11994;51.038;16.974;2023-01-24T09:10:16;63.10;;;40.40;;
23634;SDS011;11994;51.038;16.974;2023-01-24T09:12:42;64.30;;;40.50;;
23634;SDS011;11994;51.038;16.974;2023-01-24T09:15:08;66.20;;;40.50;;
23634;SDS011;11994;51.038;16.974;2023-01-24T09:17:33;64.70;;;39.20;;
23634;SDS011;11994;51.038;16.974;2023-01-24T09:19:59;68.50;;;44.50;;
23634;SDS011;11994;51.038;16.974;2023-01-24T09:22:25;67.20;;;43.70;;
23634;SDS011;11994;51.038;16.974;2023-01-24T09:24:51;72.40;;;43.70;;
23634;SDS011;11994;51.038;16.974;2023-01-24T09:27:16;68.70;;;43.10;;
23634;SDS011;11994;51.038;16.974;2023-01-24T09:29:41;68.00;;;41.50;;
23634;SDS011;11994;51.038;16.974;2023-01-24T09:32:07;66.50;;;41.40;;
23634;SDS011;11994;51.038;16.974;2023-01-24T09:34:32;70.90;;;42.00;;
23634;SDS011;11994;51.038;16.974;2023-01-24T09:36:58;62.40;;;38.60;;
23634;SDS011;11994;51.038;16.974;2023-01-24T09:39:23;56.20;;;36.40;;
23634;SDS011;11994;51.038;16.974;2023-01-24T09:41:55;62.60;;;37.90;;
23634;SDS011;11994;51.038;16.974;2023-01-24T09:44:34;59.40;;;37.50;;
23634;SDS011;11994;51.038;16.974;2023-01-24T09:47:18;60.00;;;37.70;;
23634;SDS011;11994;51.038;16.974;2023-01-24T09:52:26;59.40;;;37.00;;
23634;SDS011;11994;51.038;16.974;2023-01-24T10:00:19;61.30;;;38.50;;
23634;SDS011;11994;51.038;16.974;2023-01-24T10:02:49;58.70;;;37.10;;
23634;SDS011;11994;51.038;16.974;2023-01-24T10:05:15;61.00;;;38.10;;
23634;SDS011;11994;51.038;16.974;2023-01-24T10:10:26;61.50;;;38.60;;
23634;SDS011;11994;51.038;16.974;2023-01-24T10:13:03;66.40;;;40.70;;
23634;SDS011;11994;51.038;16.974;2023-01-24T10:23:37;65.10;;;39.50;;
23634;SDS011;11994;51.038;16.974;2023-01-24T10:28:45;60.90;;;38.30;;
23634;SDS011;11994;51.038;16.974;2023-01-24T10:31:16;64.40;;;41.30;;
23634;SDS011;11994;51.038;16.974;2023-01-24T10:33:47;69.50;;;43.40;;
23634;SDS011;11994;51.038;16.974;2023-01-24T10:36:32;65.10;;;41.30;;
23634;SDS011;11994;51.038;16.974;2023-01-24T10:38:59;62.10;;;38.70;;
23634;SDS011;11994;51.038;16.974;2023-01-24T10:41:25;62.40;;;40.70;;
23634;SDS011;11994;51.038;16.974;2023-01-24T10:43:59;64.50;;;40.50;;
23634;SDS011;11994;51.038;16.974;2023-01-24T10:49:00;58.90;;;38.00;;
23634;SDS011;11994;51.038;16.974;2023-01-24T10:51:30;67.30;;;43.90;;
23634;SDS011;11994;51.038;16.974;2023-01-24T10:54:00;66.10;;;43.80;;
23634;SDS011;11994;51.038;16.974;2023-01-24T10:56:26;58.80;;;38.40;;
23634;SDS011;11994;51.038;16.974;2023-01-24T10:59:00;55.90;;;35.80;;
23634;SDS011;11994;51.038;16.974;2023-01-24T11:01:38;58.10;;;35.50;;
23634;SDS011;11994;51.038;16.974;2023-01-24T11:04:14;53.60;;;35.70;;
23634;SDS011;11994;51.038;16.974;2023-01-24T11:06:45;57.50;;;36.30;;
23634;SDS011;11994;51.038;16.974;2023-01-24T11:09:14;56.00;;;35.30;;
23634;SDS011;11994;51.038;16.974;2023-01-24T11:11:44;56.50;;;36.80;;
23634;SDS011;11994;51.038;16.974;2023-01-24T11:14:14;55.50;;;35.30;;
23634;SDS011;11994;51.038;16.974;2023-01-24T11:16:46;56.80;;;35.80;;
23634;SDS011;11994;51.038;16.974;2023-01-24T11:19:29;52.30;;;33.30;;
23634;SDS011;11994;51.038;16.974;2023-01-24T11:22:24;55.10;;;35.40;;
23634;SDS011;11994;51.038;16.974;2023-01-24T11:25:00;60.10;;;36.20;;
23634;SDS011;11994;51.038;16.974;2023-01-24T11:27:27;52.40;;;35.50;;
23634;SDS011;11994;51.038;16.974;2023-01-24T11:32:46;56.60;;;36.50;;
23634;SDS011;11994;51.038;16.974;2023-01-24T11:35:22;56.30;;;35.00;;
23634;SDS011;11994;51.038;16.974;2023-01-24T11:48:53;55.50;;;35.50;;
23634;SDS011;11994;51.038;16.974;2023-01-24T11:54:18;56.00;;;36.00;;
23634;SDS011;11994;51.038;16.974;2023-01-24T11:59:39;51.30;;;32.60;;
23634;SDS011;11994;51.038;16.974;2023-01-24T12:07:45;52.30;;;34.30;;
23634;SDS011;11994;51.038;16.974;2023-01-24T12:10:28;53.50;;;34.30;;
23634;SDS011;11994;51.038;16.974;2023-01-24T12:18:28;52.40;;;32.80;;
23634;SDS011;11994;51.038;16.974;2023-01-24T12:26:25;47.90;;;32.30;;
23634;SDS011;11994;51.038;16.974;2023-01-24T12:39:50;49.70;;;33.20;;
23634;SDS011;11994;51.038;16.974;2023-01-24T12:45:25;51.10;;;32.90;;
23634;SDS011;11994;51.038;16.974;2023-01-24T12:47:57;53.80;;;34.30;;
23634;SDS011;11994;51.038;16.974;2023-01-24T12:53:25;50.90;;;33.50;;
23634;SDS011;11994;51.038;16.974;2023-01-24T12:56:14;51.50;;;35.00;;
23634;SDS011;11994;51.038;16.974;2023-01-24T12:58:46;52.70;;;35.90;;
23634;SDS011;11994;51.038;16.974;2023-01-24T13:06:56;48.20;;;32.60;;
23634;SDS011;11994;51.038;16.974;2023-01-24T13:12:02;50.30;;;33.80;;
23634;SDS011;11994;51.038;16.974;2023-01-24T13:14:39;52.10;;;34.50;;
23634;SDS011;11994;51.038;16.974;2023-01-24T13:33:20;50.80;;;33.70;;
23634;SDS011;11994;51.038;16.974;2023-01-24T13:36:02;54.00;;;34.60;;
23634;SDS011;11994;51.038;16.974;2023-01-24T13:38:30;55.00;;;35.40;;
23634;SDS011;11994;51.038;16.974;2023-01-24T13:41:05;52.40;;;34.40;;
23634;SDS011;11994;51.038;16.974;2023-01-24T13:47:02;48.20;;;30.70;;
23634;SDS011;11994;51.038;16.974;2023-01-24T13:51:52;48.80;;;33.10;;
23634;SDS011;11994;51.038;16.974;2023-01-24T13:57:46;57.70;;;37.80;;
23634;SDS011;11994;51.038;16.974;2023-01-24T14:11:13;57.20;;;36.70;;
23634;SDS011;11994;51.038;16.974;2023-01-24T14:16:13;59.30;;;39.90;;
23634;SDS011;11994;51.038;16.974;2023-01-24T14:21:52;65.90;;;41.60;;
23634;SDS011;11994;51.038;16.974;2023-01-24T14:27:24;66.20;;;41.60;;
23634;SDS011;11994;51.038;16.974;2023-01-24T14:32:49;61.10;;;40.60;;
23634;SDS011;11994;51.038;16.974;2023-01-24T14:35:21;60.40;;;40.80;;
23634;SDS011;11994;51.038;16.974;2023-01-24T14:37:50;67.50;;;42.80;;
23634;SDS011;11994;51.038;16.974;2023-01-24T14:40:26;62.30;;;41.50;;
23634;SDS011;11994;51.038;16.974;2023-01-24T14:42:59;68.40;;;43.90;;
23634;SDS011;11994;51.038;16.974;2023-01-24T14:45:28;64.80;;;42.20;;
23634;SDS011;11994;51.038;16.974;2023-01-24T14:47:55;69.80;;;43.70;;
23634;SDS011;11994;51.038;16.974;2023-01-24T14:50:26;64.30;;;40.90;;
23634;SDS011;11994;51.038;16.974;2023-01-24T14:52:53;64.50;;;39.00;;
23634;SDS011;11994;51.038;16.974;2023-01-24T14:55:27;62.40;;;40.00;;
23634;SDS011;11994;51.038;16.974;2023-01-24T14:57:54;60.20;;;38.20;;
23634;SDS011;11994;51.038;16.974;2023-01-24T15:00:20;64.70;;;41.90;;
23634;SDS011;11994;51.038;16.974;2023-01-24T15:03:00;68.00;;;41.60;;
23634;SDS011;11994;51.038;16.974;2023-01-24T15:05:35;68.50;;;42.40;;
23634;SDS011;11994;51.038;16.974;2023-01-24T15:08:03;66.20;;;43.30;;
23634;SDS011;11994;51.038;16.974;2023-01-24T15:10:31;62.70;;;38.70;;
23634;SDS011;11994;51.038;16.974;2023-01-24T15:13:00;59.60;;;38.10;;
23634;SDS011;11994;51.038;16.974;2023-01-24T15:15:28;56.10;;;38.30;;
23634;SDS011;11994;51.038;16.974;2023-01-24T15:18:07;60.50;;;40.40;;
23634;SDS011;11994;51.038;16.974;2023-01-24T15:21:05;60.10;;;40.00;;
23634;SDS011;11994;51.038;16.974;2023-01-24T15:23:40;62.80;;;40.60;;
23634;SDS011;11994;51.038;16.974;2023-01-24T15:26:22;65.10;;;43.90;;
23634;SDS011;11994;51.038;16.974;2023-01-24T15:28:49;67.20;;;42.40;;
23634;SDS011;11994;51.038;16.974;2023-01-24T15:31:18;66.40;;;41.30;;
23634;SDS011;11994;51.038;16.974;2023-01-24T15:33:57;68.20;;;39.70;;
23634;SDS011;11994;51.038;16.974;2023-01-24T15:36:27;65.10;;;39.60;;
23634;SDS011;11994;51.038;16.974;2023-01-24T15:38:56;67.30;;;40.10;;
23634;SDS011;11994;51.038;16.974;2023-01-24T15:41:23;61.50;;;41.30;;
23634;SDS011;11994;51.038;16.974;2023-01-24T15:46:31;64.70;;;41.50;;
23634;SDS011;11994;51.038;16.974;2023-01-24T15:49:29;62.90;;;39.50;;
23634;SDS011;11994;51.038;16.974;2023-01-24T15:54:39;62.00;;;39.80;;
23634;SDS011;11994;51.038;16.974;2023-01-24T15:57:11;64.00;;;40.20;;
23634;SDS011;11994;51.038;16.974;2023-01-24T15:59:52;63.50;;;40.90;;
23634;SDS011;11994;51.038;16.974;2023-01-24T16:02:20;67.10;;;41.70;;
23634;SDS011;11994;51.038;16.974;2023-01-24T16:04:45;69.50;;;42.80;;
23634;SDS011;11994;51.038;16.974;2023-01-24T16:07:12;72.10;;;42.50;;
23634;SDS011;11994;51.038;16.974;2023-01-24T16:09:39;64.50;;;40.10;;
23634;SDS011;11994;51.038;16.974;2023-01-24T16:12:04;58.90;;;39.60;;
23634;SDS011;11994;51.038;16.974;2023-01-24T16:14:30;59.70;;;38.70;;
23634;SDS011;11994;51.038;16.974;2023-01-24T16:16:58;56.70;;;38.30;;
23634;SDS011;11994;51.038;16.974;2023-01-24T16:19:25;61.30;;;39.50;;
23634;SDS011;11994;51.038;16.974;2023-01-24T16:21:51;65.50;;;41.50;;
23634;SDS011;11994;51.038;16.974;2023-01-24T16:24:17;62.00;;;40.40;;
23634;SDS011;11994;51.038;16.974;2023-01-24T16:26:49;65.10;;;41.70;;
23634;SDS011;11994;51.038;16.974;2023-01-24T16:29:17;62.50;;;39.50;;
23634;SDS011;11994;51.038;16.974;2023-01-24T16:31:46;61.10;;;39.60;;
23634;SDS011;11994;51.038;16.974;2023-01-24T16:34:11;59.40;;;39.70;;
23634;SDS011;11994;51.038;16.974;2023-01-24T16:36:37;63.90;;;40.20;;
23634;SDS011;11994;51.038;16.974;2023-01-24T16:39:03;60.20;;;41.30;;
23634;SDS011;11994;51.038;16.974;2023-01-24T16:41:30;63.10;;;41.90;;
23634;SDS011;11994;51.038;16.974;2023-01-24T16:43:56;60.00;;;38.90;;
23634;SDS011;11994;51.038;16.974;2023-01-24T16:46:21;62.00;;;41.30;;
23634;SDS011;11994;51.038;16.974;2023-01-24T16:48:47;64.00;;;40.40;;
23634;SDS011;11994;51.038;16.974;2023-01-24T16:51:14;61.10;;;39.50;;
23634;SDS011;11994;51.038;16.974;2023-01-24T16:53:42;60.30;;;40.90;;
23634;SDS011;11994;51.038;16.974;2023-01-24T16:56:08;64.00;;;41.60;;
23634;SDS011;11994;51.038;16.974;2023-01-24T16:58:34;68.00;;;44.50;;
23634;SDS011;11994;51.038;16.974;2023-01-24T17:01:00;65.90;;;43.00;;